X  Zatvori METAR podaci zračne luke     EDDK Cologne Bonn Airport
Temperatura
64°F Temperatura
52°F Točka rosišta
64% Vlaga



Vjetar
15 MPS
24 KM/S
7 M/S
13 Čvorovi



300°
ZSZ
Trenutna situacija

Djelimično oblačno Djelimično oblačno
Tlak zraka 1005.76 (hPa) - 29.7 (inHg)
Vidljivost 6 (milje) - 9.7 (km)
Zračna luka
Kôd zračne luke EDDK

Lokacija: Cologne Bonn Airport
Udaljenost: 56 (mi)

Metar:
EDDK 301250Z AUTO 30013KT 9999 FEW038 18/11 Q1006 TEMPO SHRA BKN020CB

Vrijeme: 2024-05-30 14:50 CEST